sensor_id;sensor_type;location;lat;lon;timestamp;P1;durP1;ratioP1;P2;durP2;ratioP2
19747;SDS011;10032;51.386;12.516;2023-05-10T00:00:57;5.37;;;3.53;;
19747;SDS011;10032;51.386;12.516;2023-05-10T00:03:22;3.33;;;3.00;;
19747;SDS011;10032;51.386;12.516;2023-05-10T00:05:48;3.80;;;3.40;;
19747;SDS011;10032;51.386;12.516;2023-05-10T00:08:13;4.13;;;3.50;;
19747;SDS011;10032;51.386;12.516;2023-05-10T00:10:39;4.53;;;3.37;;
19747;SDS011;10032;51.386;12.516;2023-05-10T00:13:06;5.27;;;3.60;;
19747;SDS011;10032;51.386;12.516;2023-05-10T00:15:31;4.40;;;3.50;;
19747;SDS011;10032;51.386;12.516;2023-05-10T00:17:56;3.47;;;3.10;;
19747;SDS011;10032;51.386;12.516;2023-05-10T00:20:22;4.47;;;3.50;;
19747;SDS011;10032;51.386;12.516;2023-05-10T00:22:47;3.93;;;3.53;;
19747;SDS011;10032;51.386;12.516;2023-05-10T00:25:13;9.23;;;3.70;;
19747;SDS011;10032;51.386;12.516;2023-05-10T00:27:39;3.90;;;3.37;;
19747;SDS011;10032;51.386;12.516;2023-05-10T00:30:04;6.23;;;3.40;;
19747;SDS011;10032;51.386;12.516;2023-05-10T00:32:31;5.50;;;3.57;;
19747;SDS011;10032;51.386;12.516;2023-05-10T00:34:56;4.67;;;3.20;;
19747;SDS011;10032;51.386;12.516;2023-05-10T00:37:22;4.57;;;3.03;;
19747;SDS011;10032;51.386;12.516;2023-05-10T00:39:47;3.40;;;3.10;;
19747;SDS011;10032;51.386;12.516;2023-05-10T00:42:13;4.37;;;3.33;;
19747;SDS011;10032;51.386;12.516;2023-05-10T00:44:38;3.50;;;3.20;;
19747;SDS011;10032;51.386;12.516;2023-05-10T00:47:03;3.97;;;3.23;;
19747;SDS011;10032;51.386;12.516;2023-05-10T00:49:29;3.80;;;3.20;;
19747;SDS011;10032;51.386;12.516;2023-05-10T00:51:54;5.20;;;3.53;;
19747;SDS011;10032;51.386;12.516;2023-05-10T00:54:20;4.57;;;3.40;;
19747;SDS011;10032;51.386;12.516;2023-05-10T00:56:46;5.63;;;3.60;;
19747;SDS011;10032;51.386;12.516;2023-05-10T00:59:14;6.20;;;3.63;;
19747;SDS011;10032;51.386;12.516;2023-05-10T01:01:42;4.77;;;3.80;;
19747;SDS011;10032;51.386;12.516;2023-05-10T01:04:08;4.17;;;3.27;;
19747;SDS011;10032;51.386;12.516;2023-05-10T01:06:35;4.10;;;3.57;;
19747;SDS011;10032;51.386;12.516;2023-05-10T01:09:01;3.33;;;2.93;;
19747;SDS011;10032;51.386;12.516;2023-05-10T01:11:27;3.40;;;3.10;;
19747;SDS011;10032;51.386;12.516;2023-05-10T01:13:55;5.40;;;3.20;;
19747;SDS011;10032;51.386;12.516;2023-05-10T01:16:22;5.77;;;3.37;;
19747;SDS011;10032;51.386;12.516;2023-05-10T01:18:48;5.03;;;3.63;;
19747;SDS011;10032;51.386;12.516;2023-05-10T01:34:32;6.13;;;3.37;;
19747;SDS011;10032;51.386;12.516;2023-05-10T01:37:11;3.70;;;3.30;;
19747;SDS011;10032;51.386;12.516;2023-05-10T01:39:49;3.97;;;3.27;;
19747;SDS011;10032;51.386;12.516;2023-05-10T01:42:23;4.10;;;3.63;;
19747;SDS011;10032;51.386;12.516;2023-05-10T01:47:36;6.07;;;3.73;;
19747;SDS011;10032;51.386;12.516;2023-05-10T01:50:06;4.07;;;3.30;;
19747;SDS011;10032;51.386;12.516;2023-05-10T01:52:42;4.30;;;3.47;;
19747;SDS011;10032;51.386;12.516;2023-05-10T01:55:15;5.37;;;3.70;;
19747;SDS011;10032;51.386;12.516;2023-05-10T01:57:43;4.07;;;3.67;;
19747;SDS011;10032;51.386;12.516;2023-05-10T02:00:11;5.07;;;3.73;;
19747;SDS011;10032;51.386;12.516;2023-05-10T02:02:39;4.90;;;3.67;;
19747;SDS011;10032;51.386;12.516;2023-05-10T02:05:07;5.20;;;3.73;;
19747;SDS011;10032;51.386;12.516;2023-05-10T02:07:34;3.53;;;3.03;;
19747;SDS011;10032;51.386;12.516;2023-05-10T02:10:01;4.53;;;3.73;;
19747;SDS011;10032;51.386;12.516;2023-05-10T02:12:29;4.67;;;3.00;;
19747;SDS011;10032;51.386;12.516;2023-05-10T02:14:59;5.70;;;3.97;;
19747;SDS011;10032;51.386;12.516;2023-05-10T02:17:27;4.40;;;3.50;;
19747;SDS011;10032;51.386;12.516;2023-05-10T02:19:54;5.00;;;3.90;;
19747;SDS011;10032;51.386;12.516;2023-05-10T02:22:21;3.83;;;3.33;;
19747;SDS011;10032;51.386;12.516;2023-05-10T02:24:49;4.10;;;3.63;;
19747;SDS011;10032;51.386;12.516;2023-05-10T02:27:15;3.97;;;3.40;;
19747;SDS011;10032;51.386;12.516;2023-05-10T02:29:42;4.67;;;3.40;;
19747;SDS011;10032;51.386;12.516;2023-05-10T02:32:09;3.93;;;3.53;;
19747;SDS011;10032;51.386;12.516;2023-05-10T02:34:36;4.67;;;3.53;;
19747;SDS011;10032;51.386;12.516;2023-05-10T02:37:03;4.87;;;3.50;;
19747;SDS011;10032;51.386;12.516;2023-05-10T02:39:31;3.70;;;3.27;;
19747;SDS011;10032;51.386;12.516;2023-05-10T02:41:57;4.17;;;3.23;;
19747;SDS011;10032;51.386;12.516;2023-05-10T02:44:23;4.30;;;3.40;;
19747;SDS011;10032;51.386;12.516;2023-05-10T02:46:53;4.17;;;3.50;;
19747;SDS011;10032;51.386;12.516;2023-05-10T02:49:20;5.47;;;3.97;;
19747;SDS011;10032;51.386;12.516;2023-05-10T02:51:50;4.40;;;3.80;;
19747;SDS011;10032;51.386;12.516;2023-05-10T02:54:24;5.67;;;3.80;;
19747;SDS011;10032;51.386;12.516;2023-05-10T02:56:56;4.43;;;3.50;;
19747;SDS011;10032;51.386;12.516;2023-05-10T02:59:24;5.37;;;3.77;;
19747;SDS011;10032;51.386;12.516;2023-05-10T03:01:49;4.80;;;3.77;;
19747;SDS011;10032;51.386;12.516;2023-05-10T03:04:15;4.57;;;3.67;;
19747;SDS011;10032;51.386;12.516;2023-05-10T03:06:41;4.17;;;3.40;;
19747;SDS011;10032;51.386;12.516;2023-05-10T03:09:07;5.50;;;3.60;;
19747;SDS011;10032;51.386;12.516;2023-05-10T03:20:11;5.27;;;3.77;;
19747;SDS011;10032;51.386;12.516;2023-05-10T03:22:44;7.97;;;3.80;;
19747;SDS011;10032;51.386;12.516;2023-05-10T03:25:12;4.23;;;3.43;;
19747;SDS011;10032;51.386;12.516;2023-05-10T03:27:42;5.17;;;3.70;;
19747;SDS011;10032;51.386;12.516;2023-05-10T03:30:10;6.10;;;3.47;;
19747;SDS011;10032;51.386;12.516;2023-05-10T03:32:37;4.17;;;3.37;;
19747;SDS011;10032;51.386;12.516;2023-05-10T03:35:08;4.37;;;3.50;;
19747;SDS011;10032;51.386;12.516;2023-05-10T03:37:35;3.63;;;3.23;;
19747;SDS011;10032;51.386;12.516;2023-05-10T03:40:01;4.73;;;3.33;;
19747;SDS011;10032;51.386;12.516;2023-05-10T03:42:27;4.63;;;3.47;;
19747;SDS011;10032;51.386;12.516;2023-05-10T03:44:53;4.07;;;3.33;;
19747;SDS011;10032;51.386;12.516;2023-05-10T03:47:18;5.63;;;3.70;;
19747;SDS011;10032;51.386;12.516;2023-05-10T03:49:43;5.97;;;3.63;;
19747;SDS011;10032;51.386;12.516;2023-05-10T03:52:09;5.87;;;3.90;;
19747;SDS011;10032;51.386;12.516;2023-05-10T03:54:34;4.73;;;3.93;;
19747;SDS011;10032;51.386;12.516;2023-05-10T03:57:00;6.50;;;3.77;;
19747;SDS011;10032;51.386;12.516;2023-05-10T03:59:26;4.37;;;3.40;;
19747;SDS011;10032;51.386;12.516;2023-05-10T04:01:51;5.77;;;3.77;;
19747;SDS011;10032;51.386;12.516;2023-05-10T04:04:16;4.17;;;3.20;;
19747;SDS011;10032;51.386;12.516;2023-05-10T04:06:43;5.53;;;3.83;;
19747;SDS011;10032;51.386;12.516;2023-05-10T04:09:09;10.37;;;6.03;;
19747;SDS011;10032;51.386;12.516;2023-05-10T04:11:34;5.50;;;4.13;;
19747;SDS011;10032;51.386;12.516;2023-05-10T04:14:00;7.70;;;4.10;;
19747;SDS011;10032;51.386;12.516;2023-05-10T04:16:25;9.93;;;3.47;;
19747;SDS011;10032;51.386;12.516;2023-05-10T04:18:51;5.10;;;4.10;;
19747;SDS011;10032;51.386;12.516;2023-05-10T04:21:16;4.70;;;3.43;;
19747;SDS011;10032;51.386;12.516;2023-05-10T04:23:41;6.53;;;3.77;;
19747;SDS011;10032;51.386;12.516;2023-05-10T04:26:07;6.90;;;4.30;;
19747;SDS011;10032;51.386;12.516;2023-05-10T04:28:32;5.97;;;3.73;;
19747;SDS011;10032;51.386;12.516;2023-05-10T04:31:04;5.80;;;3.60;;
19747;SDS011;10032;51.386;12.516;2023-05-10T04:33:30;6.13;;;4.07;;
19747;SDS011;10032;51.386;12.516;2023-05-10T04:35:56;9.93;;;6.10;;
19747;SDS011;10032;51.386;12.516;2023-05-10T04:38:22;4.57;;;3.53;;
19747;SDS011;10032;51.386;12.516;2023-05-10T04:40:47;5.00;;;3.50;;
19747;SDS011;10032;51.386;12.516;2023-05-10T04:43:13;6.27;;;3.87;;
19747;SDS011;10032;51.386;12.516;2023-05-10T04:45:38;4.40;;;3.77;;
19747;SDS011;10032;51.386;12.516;2023-05-10T04:48:04;5.03;;;3.70;;
19747;SDS011;10032;51.386;12.516;2023-05-10T04:50:30;4.80;;;3.40;;
19747;SDS011;10032;51.386;12.516;2023-05-10T04:52:55;4.20;;;3.27;;
19747;SDS011;10032;51.386;12.516;2023-05-10T04:55:21;6.17;;;3.47;;
19747;SDS011;10032;51.386;12.516;2023-05-10T04:57:46;4.63;;;3.73;;
19747;SDS011;10032;51.386;12.516;2023-05-10T05:00:12;5.13;;;3.40;;
19747;SDS011;10032;51.386;12.516;2023-05-10T05:02:37;3.93;;;3.30;;
19747;SDS011;10032;51.386;12.516;2023-05-10T05:05:03;5.03;;;3.57;;
19747;SDS011;10032;51.386;12.516;2023-05-10T05:07:29;4.50;;;3.57;;
19747;SDS011;10032;51.386;12.516;2023-05-10T05:09:55;8.90;;;3.23;;
19747;SDS011;10032;51.386;12.516;2023-05-10T05:12:21;4.60;;;3.30;;
19747;SDS011;10032;51.386;12.516;2023-05-10T05:14:46;4.17;;;3.10;;
19747;SDS011;10032;51.386;12.516;2023-05-10T05:17:12;4.00;;;3.20;;
19747;SDS011;10032;51.386;12.516;2023-05-10T05:19:37;3.37;;;3.07;;
19747;SDS011;10032;51.386;12.516;2023-05-10T05:22:02;4.20;;;3.13;;
19747;SDS011;10032;51.386;12.516;2023-05-10T05:24:28;3.83;;;2.97;;
19747;SDS011;10032;51.386;12.516;2023-05-10T05:26:53;5.10;;;3.57;;
19747;SDS011;10032;51.386;12.516;2023-05-10T05:29:19;4.67;;;3.40;;
19747;SDS011;10032;51.386;12.516;2023-05-10T05:31:44;6.90;;;3.33;;
19747;SDS011;10032;51.386;12.516;2023-05-10T05:34:09;4.07;;;2.85;;
19747;SDS011;10032;51.386;12.516;2023-05-10T05:36:38;4.93;;;2.90;;
19747;SDS011;10032;51.386;12.516;2023-05-10T05:39:03;3.58;;;3.28;;
19747;SDS011;10032;51.386;12.516;2023-05-10T05:41:29;2.95;;;2.63;;
19747;SDS011;10032;51.386;12.516;2023-05-10T05:43:54;4.05;;;2.95;;
19747;SDS011;10032;51.386;12.516;2023-05-10T05:46:20;3.30;;;2.90;;
19747;SDS011;10032;51.386;12.516;2023-05-10T05:48:45;5.07;;;3.25;;
19747;SDS011;10032;51.386;12.516;2023-05-10T05:51:10;5.85;;;2.88;;
19747;SDS011;10032;51.386;12.516;2023-05-10T05:53:36;3.95;;;2.90;;
19747;SDS011;10032;51.386;12.516;2023-05-10T05:56:03;4.53;;;3.08;;
19747;SDS011;10032;51.386;12.516;2023-05-10T05:58:31;3.72;;;3.38;;
19747;SDS011;10032;51.386;12.516;2023-05-10T06:00:56;4.93;;;3.17;;
19747;SDS011;10032;51.386;12.516;2023-05-10T06:03:22;8.35;;;3.30;;
19747;SDS011;10032;51.386;12.516;2023-05-10T06:05:47;4.22;;;3.58;;
19747;SDS011;10032;51.386;12.516;2023-05-10T06:08:13;3.50;;;3.00;;
19747;SDS011;10032;51.386;12.516;2023-05-10T06:10:38;4.38;;;3.22;;
19747;SDS011;10032;51.386;12.516;2023-05-10T06:13:05;5.88;;;3.42;;
19747;SDS011;10032;51.386;12.516;2023-05-10T06:15:30;3.25;;;2.45;;
19747;SDS011;10032;51.386;12.516;2023-05-10T06:17:57;3.10;;;2.58;;
19747;SDS011;10032;51.386;12.516;2023-05-10T06:20:22;3.22;;;2.55;;
19747;SDS011;10032;51.386;12.516;2023-05-10T06:22:48;3.38;;;2.70;;
19747;SDS011;10032;51.386;12.516;2023-05-10T06:25:13;4.65;;;3.25;;
19747;SDS011;10032;51.386;12.516;2023-05-10T06:27:39;2.85;;;2.58;;
19747;SDS011;10032;51.386;12.516;2023-05-10T06:30:05;5.55;;;3.17;;
19747;SDS011;10032;51.386;12.516;2023-05-10T06:32:31;3.53;;;3.20;;
19747;SDS011;10032;51.386;12.516;2023-05-10T06:34:56;4.30;;;2.47;;
19747;SDS011;10032;51.386;12.516;2023-05-10T06:37:22;3.28;;;2.80;;
19747;SDS011;10032;51.386;12.516;2023-05-10T06:39:47;3.75;;;3.00;;
19747;SDS011;10032;51.386;12.516;2023-05-10T06:42:13;3.47;;;2.90;;
19747;SDS011;10032;51.386;12.516;2023-05-10T06:44:38;3.58;;;3.10;;
19747;SDS011;10032;51.386;12.516;2023-05-10T06:47:04;3.28;;;2.90;;
19747;SDS011;10032;51.386;12.516;2023-05-10T06:49:29;3.00;;;2.70;;
19747;SDS011;10032;51.386;12.516;2023-05-10T06:51:55;3.40;;;3.10;;
19747;SDS011;10032;51.386;12.516;2023-05-10T06:54:21;3.42;;;3.03;;
19747;SDS011;10032;51.386;12.516;2023-05-10T06:56:46;3.80;;;3.20;;
19747;SDS011;10032;51.386;12.516;2023-05-10T06:59:11;4.32;;;2.85;;
19747;SDS011;10032;51.386;12.516;2023-05-10T07:01:38;3.53;;;2.80;;
19747;SDS011;10032;51.386;12.516;2023-05-10T07:04:04;3.30;;;3.00;;
19747;SDS011;10032;51.386;12.516;2023-05-10T07:06:29;2.92;;;2.72;;
19747;SDS011;10032;51.386;12.516;2023-05-10T07:08:55;4.32;;;2.83;;
19747;SDS011;10032;51.386;12.516;2023-05-10T07:11:20;4.25;;;2.97;;
19747;SDS011;10032;51.386;12.516;2023-05-10T07:13:46;5.47;;;3.08;;
19747;SDS011;10032;51.386;12.516;2023-05-10T07:16:11;3.17;;;2.88;;
19747;SDS011;10032;51.386;12.516;2023-05-10T07:18:39;3.63;;;3.25;;
19747;SDS011;10032;51.386;12.516;2023-05-10T07:21:05;3.90;;;3.10;;
19747;SDS011;10032;51.386;12.516;2023-05-10T07:23:31;4.38;;;2.97;;
19747;SDS011;10032;51.386;12.516;2023-05-10T07:25:57;3.47;;;2.72;;
19747;SDS011;10032;51.386;12.516;2023-05-10T07:28:23;3.72;;;3.20;;
19747;SDS011;10032;51.386;12.516;2023-05-10T07:30:49;4.65;;;3.28;;
19747;SDS011;10032;51.386;12.516;2023-05-10T07:33:14;3.38;;;3.08;;
19747;SDS011;10032;51.386;12.516;2023-05-10T07:35:40;3.47;;;2.70;;
19747;SDS011;10032;51.386;12.516;2023-05-10T07:38:06;3.30;;;2.72;;
19747;SDS011;10032;51.386;12.516;2023-05-10T07:40:31;4.20;;;3.45;;
19747;SDS011;10032;51.386;12.516;2023-05-10T07:42:57;3.90;;;3.08;;
19747;SDS011;10032;51.386;12.516;2023-05-10T07:45:23;3.17;;;2.88;;
19747;SDS011;10032;51.386;12.516;2023-05-10T07:47:49;3.50;;;2.95;;
19747;SDS011;10032;51.386;12.516;2023-05-10T07:50:14;3.38;;;3.03;;
19747;SDS011;10032;51.386;12.516;2023-05-10T07:52:40;3.78;;;3.03;;
19747;SDS011;10032;51.386;12.516;2023-05-10T07:55:06;3.72;;;2.78;;
19747;SDS011;10032;51.386;12.516;2023-05-10T07:57:33;3.40;;;3.10;;
19747;SDS011;10032;51.386;12.516;2023-05-10T07:59:58;5.60;;;3.50;;
19747;SDS011;10032;51.386;12.516;2023-05-10T08:02:24;3.47;;;2.78;;
19747;SDS011;10032;51.386;12.516;2023-05-10T08:04:50;3.85;;;2.80;;
19747;SDS011;10032;51.386;12.516;2023-05-10T08:07:15;4.22;;;3.35;;
19747;SDS011;10032;51.386;12.516;2023-05-10T08:09:41;5.03;;;2.95;;
19747;SDS011;10032;51.386;12.516;2023-05-10T08:12:06;5.25;;;3.28;;
19747;SDS011;10032;51.386;12.516;2023-05-10T08:14:32;3.35;;;3.05;;
19747;SDS011;10032;51.386;12.516;2023-05-10T08:16:57;3.65;;;3.20;;
19747;SDS011;10032;51.386;12.516;2023-05-10T08:19:22;6.30;;;3.17;;
19747;SDS011;10032;51.386;12.516;2023-05-10T08:21:48;4.28;;;3.08;;
19747;SDS011;10032;51.386;12.516;2023-05-10T08:24:14;4.70;;;3.33;;
19747;SDS011;10032;51.386;12.516;2023-05-10T08:26:40;5.38;;;3.10;;
19747;SDS011;10032;51.386;12.516;2023-05-10T08:29:05;3.88;;;3.38;;
19747;SDS011;10032;51.386;12.516;2023-05-10T08:31:31;8.57;;;3.08;;
19747;SDS011;10032;51.386;12.516;2023-05-10T08:33:56;6.80;;;3.25;;
19747;SDS011;10032;51.386;12.516;2023-05-10T08:36:21;3.60;;;2.67;;
19747;SDS011;10032;51.386;12.516;2023-05-10T08:38:54;3.97;;;3.40;;
19747;SDS011;10032;51.386;12.516;2023-05-10T08:41:20;3.75;;;2.88;;
19747;SDS011;10032;51.386;12.516;2023-05-10T08:43:49;5.65;;;3.53;;
19747;SDS011;10032;51.386;12.516;2023-05-10T08:46:17;3.15;;;2.85;;
19747;SDS011;10032;51.386;12.516;2023-05-10T08:48:44;6.72;;;3.10;;
19747;SDS011;10032;51.386;12.516;2023-05-10T08:51:12;3.70;;;3.25;;
19747;SDS011;10032;51.386;12.516;2023-05-10T08:53:39;4.50;;;3.40;;
19747;SDS011;10032;51.386;12.516;2023-05-10T08:56:05;4.72;;;3.10;;
19747;SDS011;10032;51.386;12.516;2023-05-10T08:58:31;4.15;;;3.10;;
19747;SDS011;10032;51.386;12.516;2023-05-10T09:00:59;3.90;;;3.30;;
19747;SDS011;10032;51.386;12.516;2023-05-10T09:03:25;5.07;;;3.40;;
19747;SDS011;10032;51.386;12.516;2023-05-10T09:05:51;4.53;;;3.15;;
19747;SDS011;10032;51.386;12.516;2023-05-10T09:08:17;5.10;;;3.08;;
19747;SDS011;10032;51.386;12.516;2023-05-10T09:10:46;4.20;;;2.92;;
19747;SDS011;10032;51.386;12.516;2023-05-10T09:13:13;4.28;;;3.10;;
19747;SDS011;10032;51.386;12.516;2023-05-10T09:15:40;5.28;;;3.17;;
19747;SDS011;10032;51.386;12.516;2023-05-10T09:18:06;4.57;;;3.45;;
19747;SDS011;10032;51.386;12.516;2023-05-10T09:20:31;4.15;;;3.60;;
19747;SDS011;10032;51.386;12.516;2023-05-10T09:22:56;5.72;;;3.22;;
19747;SDS011;10032;51.386;12.516;2023-05-10T09:25:22;4.43;;;3.35;;
19747;SDS011;10032;51.386;12.516;2023-05-10T09:27:48;4.30;;;3.35;;
19747;SDS011;10032;51.386;12.516;2023-05-10T09:30:17;4.78;;;3.30;;
19747;SDS011;10032;51.386;12.516;2023-05-10T09:32:51;5.25;;;3.38;;
19747;SDS011;10032;51.386;12.516;2023-05-10T09:35:17;5.03;;;3.22;;
19747;SDS011;10032;51.386;12.516;2023-05-10T09:37:50;4.00;;;3.53;;
19747;SDS011;10032;51.386;12.516;2023-05-10T09:40:20;6.57;;;3.88;;
19747;SDS011;10032;51.386;12.516;2023-05-10T09:42:53;3.72;;;3.33;;
19747;SDS011;10032;51.386;12.516;2023-05-10T09:45:23;3.67;;;3.15;;
19747;SDS011;10032;51.386;12.516;2023-05-10T09:47:50;4.57;;;3.85;;
19747;SDS011;10032;51.386;12.516;2023-05-10T09:50:16;7.10;;;3.92;;
19747;SDS011;10032;51.386;12.516;2023-05-10T09:52:49;4.60;;;3.58;;
19747;SDS011;10032;51.386;12.516;2023-05-10T09:55:19;3.75;;;3.42;;
19747;SDS011;10032;51.386;12.516;2023-05-10T09:57:47;5.50;;;3.70;;
19747;SDS011;10032;51.386;12.516;2023-05-10T10:00:22;4.45;;;3.90;;
19747;SDS011;10032;51.386;12.516;2023-05-10T10:02:53;4.18;;;3.63;;
19747;SDS011;10032;51.386;12.516;2023-05-10T10:05:20;4.10;;;3.63;;
19747;SDS011;10032;51.386;12.516;2023-05-10T10:07:45;3.78;;;3.42;;
19747;SDS011;10032;51.386;12.516;2023-05-10T10:10:12;4.70;;;3.63;;
19747;SDS011;10032;51.386;12.516;2023-05-10T10:12:38;5.55;;;3.67;;
19747;SDS011;10032;51.386;12.516;2023-05-10T10:15:05;5.85;;;4.43;;
19747;SDS011;10032;51.386;12.516;2023-05-10T10:17:32;5.22;;;3.78;;
19747;SDS011;10032;51.386;12.516;2023-05-10T10:20:02;4.65;;;3.85;;
19747;SDS011;10032;51.386;12.516;2023-05-10T10:22:28;5.82;;;3.70;;
19747;SDS011;10032;51.386;12.516;2023-05-10T10:24:54;4.97;;;4.20;;
19747;SDS011;10032;51.386;12.516;2023-05-10T10:35:35;7.47;;;4.32;;
19747;SDS011;10032;51.386;12.516;2023-05-10T10:38:01;9.25;;;4.55;;
19747;SDS011;10032;51.386;12.516;2023-05-10T10:40:27;5.60;;;4.53;;
19747;SDS011;10032;51.386;12.516;2023-05-10T10:42:54;4.50;;;4.10;;
19747;SDS011;10032;51.386;12.516;2023-05-10T10:45:21;4.53;;;4.13;;
19747;SDS011;10032;51.386;12.516;2023-05-10T10:47:47;5.07;;;4.28;;
19747;SDS011;10032;51.386;12.516;2023-05-10T10:50:13;5.50;;;4.40;;
19747;SDS011;10032;51.386;12.516;2023-05-10T10:55:08;5.85;;;4.47;;
19747;SDS011;10032;51.386;12.516;2023-05-10T11:02:44;5.75;;;4.60;;
19747;SDS011;10032;51.386;12.516;2023-05-10T11:07:58;4.75;;;4.25;;
19747;SDS011;10032;51.386;12.516;2023-05-10T11:10:24;5.25;;;4.45;;
19747;SDS011;10032;51.386;12.516;2023-05-10T11:13:01;5.22;;;4.28;;
19747;SDS011;10032;51.386;12.516;2023-05-10T11:15:34;5.05;;;4.53;;
19747;SDS011;10032;51.386;12.516;2023-05-10T11:20:59;5.38;;;4.63;;
19747;SDS011;10032;51.386;12.516;2023-05-10T11:23:31;5.95;;;5.05;;
19747;SDS011;10032;51.386;12.516;2023-05-10T11:25:58;6.20;;;5.13;;
19747;SDS011;10032;51.386;12.516;2023-05-10T11:28:25;6.93;;;5.32;;
19747;SDS011;10032;51.386;12.516;2023-05-10T11:30:52;5.43;;;4.47;;
19747;SDS011;10032;51.386;12.516;2023-05-10T11:33:18;5.97;;;4.95;;
19747;SDS011;10032;51.386;12.516;2023-05-10T11:35:44;9.60;;;5.15;;
19747;SDS011;10032;51.386;12.516;2023-05-10T11:38:10;6.05;;;4.80;;
19747;SDS011;10032;51.386;12.516;2023-05-10T11:40:37;5.38;;;4.50;;
19747;SDS011;10032;51.386;12.516;2023-05-10T11:43:03;6.10;;;4.53;;
19747;SDS011;10032;51.386;12.516;2023-05-10T11:45:33;6.32;;;4.97;;
19747;SDS011;10032;51.386;12.516;2023-05-10T11:48:00;6.13;;;5.05;;
19747;SDS011;10032;51.386;12.516;2023-05-10T11:50:26;6.60;;;5.30;;
19747;SDS011;10032;51.386;12.516;2023-05-10T11:52:53;6.32;;;4.78;;
19747;SDS011;10032;51.386;12.516;2023-05-10T11:55:19;5.65;;;5.10;;
19747;SDS011;10032;51.386;12.516;2023-05-10T11:57:45;5.75;;;4.55;;
19747;SDS011;10032;51.386;12.516;2023-05-10T12:00:11;5.05;;;4.47;;
19747;SDS011;10032;51.386;12.516;2023-05-10T12:02:39;6.38;;;4.93;;
19747;SDS011;10032;51.386;12.516;2023-05-10T12:05:05;6.75;;;5.03;;
19747;SDS011;10032;51.386;12.516;2023-05-10T12:07:31;5.60;;;4.43;;
19747;SDS011;10032;51.386;12.516;2023-05-10T12:10:10;6.18;;;5.07;;
19747;SDS011;10032;51.386;12.516;2023-05-10T12:12:40;7.03;;;5.13;;
19747;SDS011;10032;51.386;12.516;2023-05-10T12:15:17;7.13;;;4.90;;
19747;SDS011;10032;51.386;12.516;2023-05-10T12:17:47;6.07;;;4.70;;
19747;SDS011;10032;51.386;12.516;2023-05-10T12:20:22;5.93;;;5.05;;
19747;SDS011;10032;51.386;12.516;2023-05-10T12:22:53;7.47;;;5.43;;
19747;SDS011;10032;51.386;12.516;2023-05-10T12:25:22;6.60;;;5.18;;
19747;SDS011;10032;51.386;12.516;2023-05-10T12:27:55;6.32;;;5.20;;
19747;SDS011;10032;51.386;12.516;2023-05-10T12:30:23;6.93;;;4.80;;
19747;SDS011;10032;51.386;12.516;2023-05-10T12:32:49;5.90;;;5.05;;
19747;SDS011;10032;51.386;12.516;2023-05-10T12:35:15;6.50;;;5.38;;
19747;SDS011;10032;51.386;12.516;2023-05-10T12:37:41;7.60;;;5.75;;
19747;SDS011;10032;51.386;12.516;2023-05-10T12:40:08;6.28;;;5.15;;
19747;SDS011;10032;51.386;12.516;2023-05-10T12:42:36;6.38;;;4.97;;
19747;SDS011;10032;51.386;12.516;2023-05-10T12:45:03;5.70;;;5.10;;
19747;SDS011;10032;51.386;12.516;2023-05-10T12:47:29;6.03;;;5.03;;
19747;SDS011;10032;51.386;12.516;2023-05-10T12:49:55;7.25;;;5.80;;
19747;SDS011;10032;51.386;12.516;2023-05-10T12:52:20;6.85;;;5.55;;
19747;SDS011;10032;51.386;12.516;2023-05-10T12:54:46;6.65;;;4.80;;
19747;SDS011;10032;51.386;12.516;2023-05-10T12:57:12;5.68;;;4.68;;
19747;SDS011;10032;51.386;12.516;2023-05-10T12:59:38;5.10;;;3.97;;
19747;SDS011;10032;51.386;12.516;2023-05-10T13:02:03;5.88;;;5.22;;
19747;SDS011;10032;51.386;12.516;2023-05-10T13:04:29;6.50;;;5.22;;
19747;SDS011;10032;51.386;12.516;2023-05-10T13:06:54;6.47;;;5.15;;
19747;SDS011;10032;51.386;12.516;2023-05-10T13:09:23;6.47;;;4.38;;
19747;SDS011;10032;51.386;12.516;2023-05-10T13:11:52;6.97;;;4.88;;
19747;SDS011;10032;51.386;12.516;2023-05-10T13:14:19;9.27;;;5.22;;
19747;SDS011;10032;51.386;12.516;2023-05-10T13:16:45;4.30;;;3.83;;
19747;SDS011;10032;51.386;12.516;2023-05-10T13:19:12;5.22;;;3.97;;
19747;SDS011;10032;51.386;12.516;2023-05-10T13:21:37;8.07;;;4.57;;
19747;SDS011;10032;51.386;12.516;2023-05-10T13:24:03;4.32;;;3.92;;
19747;SDS011;10032;51.386;12.516;2023-05-10T13:26:28;5.90;;;3.75;;
19747;SDS011;10032;51.386;12.516;2023-05-10T13:28:54;5.35;;;4.05;;
19747;SDS011;10032;51.386;12.516;2023-05-10T13:31:20;4.85;;;4.20;;
19747;SDS011;10032;51.386;12.516;2023-05-10T13:33:46;4.78;;;4.13;;
19747;SDS011;10032;51.386;12.516;2023-05-10T13:36:11;5.07;;;4.18;;
19747;SDS011;10032;51.386;12.516;2023-05-10T13:38:37;4.18;;;3.45;;
19747;SDS011;10032;51.386;12.516;2023-05-10T13:41:02;4.28;;;3.83;;
19747;SDS011;10032;51.386;12.516;2023-05-10T13:43:28;5.03;;;3.85;;
19747;SDS011;10032;51.386;12.516;2023-05-10T13:45:54;4.57;;;3.92;;
19747;SDS011;10032;51.386;12.516;2023-05-10T13:48:19;5.53;;;4.22;;
19747;SDS011;10032;51.386;12.516;2023-05-10T13:50:45;4.25;;;3.85;;
19747;SDS011;10032;51.386;12.516;2023-05-10T13:53:11;3.95;;;3.50;;
19747;SDS011;10032;51.386;12.516;2023-05-10T13:55:39;5.88;;;3.50;;
19747;SDS011;10032;51.386;12.516;2023-05-10T13:58:05;4.45;;;4.03;;
19747;SDS011;10032;51.386;12.516;2023-05-10T14:00:30;5.10;;;3.25;;
19747;SDS011;10032;51.386;12.516;2023-05-10T14:02:56;3.75;;;3.42;;
19747;SDS011;10032;51.386;12.516;2023-05-10T14:05:21;4.32;;;3.92;;
19747;SDS011;10032;51.386;12.516;2023-05-10T14:07:48;4.65;;;3.22;;
19747;SDS011;10032;51.386;12.516;2023-05-10T14:10:13;4.05;;;3.65;;
19747;SDS011;10032;51.386;12.516;2023-05-10T14:12:39;3.35;;;3.05;;
19747;SDS011;10032;51.386;12.516;2023-05-10T14:15:04;3.60;;;3.30;;
19747;SDS011;10032;51.386;12.516;2023-05-10T14:17:31;4.72;;;4.03;;
19747;SDS011;10032;51.386;12.516;2023-05-10T14:19:57;5.03;;;3.75;;
19747;SDS011;10032;51.386;12.516;2023-05-10T14:22:25;5.05;;;3.92;;
19747;SDS011;10032;51.386;12.516;2023-05-10T14:24:51;3.90;;;3.50;;
19747;SDS011;10032;51.386;12.516;2023-05-10T14:27:16;3.85;;;3.45;;
19747;SDS011;10032;51.386;12.516;2023-05-10T14:29:41;4.68;;;3.33;;
19747;SDS011;10032;51.386;12.516;2023-05-10T14:32:07;4.32;;;3.58;;
19747;SDS011;10032;51.386;12.516;2023-05-10T14:34:34;4.78;;;3.45;;
19747;SDS011;10032;51.386;12.516;2023-05-10T14:36:59;3.55;;;3.10;;
19747;SDS011;10032;51.386;12.516;2023-05-10T14:39:37;3.92;;;3.17;;
19747;SDS011;10032;51.386;12.516;2023-05-10T14:42:41;3.13;;;2.85;;
19747;SDS011;10032;51.386;12.516;2023-05-10T14:45:22;4.20;;;3.30;;
19747;SDS011;10032;51.386;12.516;2023-05-10T14:47:48;4.68;;;3.58;;
19747;SDS011;10032;51.386;12.516;2023-05-10T14:53:29;3.30;;;2.80;;
19747;SDS011;10032;51.386;12.516;2023-05-10T14:56:00;3.45;;;2.75;;
19747;SDS011;10032;51.386;12.516;2023-05-10T15:01:44;2.90;;;2.60;;
19747;SDS011;10032;51.386;12.516;2023-05-10T15:04:10;2.65;;;2.40;;
19747;SDS011;10032;51.386;12.516;2023-05-10T15:06:35;2.70;;;2.50;;
19747;SDS011;10032;51.386;12.516;2023-05-10T15:09:02;3.00;;;2.70;;
19747;SDS011;10032;51.386;12.516;2023-05-10T15:11:28;3.90;;;2.63;;
19747;SDS011;10032;51.386;12.516;2023-05-10T15:13:54;2.95;;;2.65;;
19747;SDS011;10032;51.386;12.516;2023-05-10T15:16:20;3.45;;;2.90;;
19747;SDS011;10032;51.386;12.516;2023-05-10T15:18:45;3.17;;;2.88;;
19747;SDS011;10032;51.386;12.516;2023-05-10T15:21:11;3.55;;;3.08;;
19747;SDS011;10032;51.386;12.516;2023-05-10T15:23:36;2.97;;;2.60;;